Unicom:                    122.8

AWOS:                  118.275

Elevation           1458’ MSL

TPA:                   2500’ MSL

06/24:         5003’ L   75’ W

PAPI:       06/Left     24/Left

(Operate lights on unicom freq.)

Traffic Pattern: Left

Beacon: Sunset to Sunrise

Windsock: yes, lighted

Segmented Circle: No

 

Cleveland Center: 126.72/291.65

FSS: Altoona

[Source: ADDS]
METAR
KFKL 271831Z AUTO 26010KT 10SM OVC007 06/04 A3004 RMK AO2 =
KFKL 271720Z 2718/2818 25008KT P6SM BKN007 FM272200 28006KT P6SM BKN025 FM280500 10003KT P6SM BKN200 FM281200 13009KT 6SM RA OVC025 FM281600 15009KT 4SM RA OVC007
TAF
KFKL 271720Z 2718/2818 25008KT P6SM BKN007 FM272200 28006KT P6SM BKN025 FM280500 10003KT P6SM BKN200 FM281200 13009KT 6SM RA OVC025 FM281600 15009KT 4SM RA OVC007 =
[Source: ADDS]
METAR
KDUJ 271821Z AUTO 26010KT 10SM OVC005 05/03 A3001 RMK AO2 T00500028 =
KDUJ 271720Z 2718/2818 24008G16KT P6SM VCSH BKN007 FM272000 27009KT P6SM BKN006 FM281000 11007KT P6SM VCSH OVC040 FM281200 12009KT 5SM RA OVC015 FM281700 15010KT 5SM RA OVC005
TAF
KDUJ 271720Z 2718/2818 24008G16KT P6SM VCSH BKN007 FM272000 27009KT P6SM BKN006 FM281000 11007KT P6SM VCSH OVC040 FM281200 12009KT 5SM RA OVC015 FM281700 15010KT 5SM RA OVC005 =

Airport Information. 

Runway Length: 5003ft x 75ft

Runways 6/24

Traffic Pattern: Left

PAPI’s: 2 light PAPI on left of both 6/24

TPA: 2500 msl

Field Elevation: 1458 msl

Surface: Asphalt

Beacon: Operates Sunset-Sunrise

Pilot Controlled Lighting:  yes 122.8

 

Fuel:

Jet-A w/prist

100 LL

Center point fueling available upon request.

 

Unicom Frequency: 122.8

AWOS Frequency: 118.27  (814-227-2899)

 

Cleveland Center: 126.72 (440-774-0442)

 

GPS Approach Plates for 6/24 download here: http://www.airnav.com/airport/KAXQ

[Source: ADDS]
METAR
KFKL 271831Z AUTO 26010KT 10SM OVC007 06/04 A3004 RMK AO2 =
KFKL 271720Z 2718/2818 25008KT P6SM BKN007 FM272200 28006KT P6SM BKN025 FM280500 10003KT P6SM BKN200 FM281200 13009KT 6SM RA OVC025 FM281600 15009KT 4SM RA OVC007
TAF
KFKL 271720Z 2718/2818 25008KT P6SM BKN007 FM272200 28006KT P6SM BKN025 FM280500 10003KT P6SM BKN200 FM281200 13009KT 6SM RA OVC025 FM281600 15009KT 4SM RA OVC007 =
[Source: ADDS]
METAR
KDUJ 271821Z AUTO 26010KT 10SM OVC005 05/03 A3001 RMK AO2 T00500028 =
KDUJ 271720Z 2718/2818 24008G16KT P6SM VCSH BKN007 FM272000 27009KT P6SM BKN006 FM281000 11007KT P6SM VCSH OVC040 FM281200 12009KT 5SM RA OVC015 FM281700 15010KT 5SM RA OVC005
TAF
KDUJ 271720Z 2718/2818 24008G16KT P6SM VCSH BKN007 FM272000 27009KT P6SM BKN006 FM281000 11007KT P6SM VCSH OVC040 FM281200 12009KT 5SM RA OVC015 FM281700 15010KT 5SM RA OVC005 =